Time;durP1;ratioP1;P1;durP2;ratioP2;P2;SDS_P1;SDS_P2;PMS_P1;PMS_P2;Temp;Humidity;BMP_temperature;BMP_pressure;BME280_temperature;BME280_humidity;BME280_pressure;Samples;Min_cycle;Max_cycle;Signal;HPM_P1;HPM_P2
2023/06/10 00:01:27;;;;;;;7.17;5.47;;;;;;;24.24;47.67;101282.16;5190242;28;20030;-68
2023/06/10 00:03:58;;;;;;;6.00;5.43;;;;;;;24.15;47.44;101280.75;5192857;28;20033;-67
2023/06/10 00:06:35;;;;;;;8.93;5.23;;;;;;;24.12;47.80;101281.16;5190210;28;20483;-68
2023/06/10 00:09:10;;;;;;;7.97;5.72;;;;;;;24.10;47.63;101280.56;5189149;28;20079;-68
2023/06/10 00:11:41;;;;;;;6.78;5.88;;;;;;;24.10;47.55;101288.59;5193450;28;20077;-67
2023/06/10 00:14:13;;;;;;;6.77;5.10;;;;;;;24.07;47.63;101289.84;5187426;28;20035;-68
2023/06/10 00:16:44;;;;;;;10.03;5.73;;;;;;;24.06;47.38;101287.38;5191494;28;20109;-69
2023/06/10 00:19:16;;;;;;;7.07;6.20;;;;;;;24.01;47.56;101285.28;5188806;28;20046;-68
2023/06/10 00:21:47;;;;;;;7.37;5.67;;;;;;;23.97;47.86;101284.88;5190917;28;20348;-69
2023/06/10 00:24:18;;;;;;;7.20;5.70;;;;;;;23.94;47.96;101288.00;5188170;28;20583;-68
2023/06/10 00:26:50;;;;;;;7.10;5.37;;;;;;;23.94;48.19;101293.34;5192042;28;20496;-68
2023/06/10 00:29:21;;;;;;;7.20;5.57;;;;;;;23.93;48.65;101294.38;5190814;28;20037;-68
2023/06/10 00:31:57;;;;;;;6.40;5.43;;;;;;;23.85;48.49;101291.09;5191146;28;20391;-68
2023/06/10 00:34:28;;;;;;;7.88;5.70;;;;;;;23.73;48.61;101288.22;5189260;28;20476;-68
2023/06/10 00:36:59;;;;;;;6.40;5.47;;;;;;;23.68;49.59;101288.84;5191849;28;20014;-68
2023/06/10 00:39:31;;;;;;;6.63;5.47;;;;;;;23.66;49.21;101288.22;5189480;28;20080;-68
2023/06/10 00:42:06;;;;;;;7.30;5.53;;;;;;;23.67;49.23;101289.03;5189225;28;20025;-68
2023/06/10 00:44:38;;;;;;;6.35;5.75;;;;;;;23.60;49.03;101288.16;5192411;28;20045;-68
2023/06/10 00:47:09;;;;;;;7.40;5.80;;;;;;;23.58;49.04;101296.41;5190298;28;20026;-69
2023/06/10 00:49:41;;;;;;;7.53;5.87;;;;;;;23.51;50.01;101296.41;5191157;28;20034;-68
2023/06/10 00:52:14;;;;;;;6.63;5.53;;;;;;;23.45;50.46;101299.91;5190306;28;20807;-68
2023/06/10 00:54:45;;;;;;;9.52;5.97;;;;;;;23.37;50.21;101296.59;5191432;28;20039;-68
2023/06/10 00:57:17;;;;;;;9.30;6.00;;;;;;;23.40;49.95;101288.16;5189305;28;20383;-68
2023/06/10 00:59:49;;;;;;;6.63;5.90;;;;;;;23.30;50.53;101289.38;5189917;28;20015;-68
2023/06/10 01:02:20;;;;;;;7.27;5.90;;;;;;;23.26;51.21;101292.66;5191583;28;20108;-69
2023/06/10 01:04:52;;;;;;;11.33;6.23;;;;;;;23.16;50.70;101292.25;5188794;28;20049;-68
2023/06/10 01:07:38;;;;;;;7.43;6.33;;;;;;;23.44;49.73;101286.72;5188854;28;20077;-68
2023/06/10 01:10:19;;;;;;;8.07;6.22;;;;;;;23.15;50.91;101285.25;5185731;28;20046;-70
2023/06/10 01:13:02;;;;;;;6.25;5.65;;;;;;;23.17;51.09;101292.03;5183960;28;20026;-69
2023/06/10 01:15:34;;;;;;;;;;;;;;;23.78;48.02;101285.72;5190503;28;20450;-68
2023/06/10 01:18:14;;;;;;;7.40;6.22;;;;;;;23.05;50.77;101293.66;5190822;28;19944;-68
2023/06/10 01:20:47;;;;;;;9.43;6.28;;;;;;;22.76;52.53;101292.88;5184935;28;20569;-68
2023/06/10 01:23:19;;;;;;;8.52;6.25;;;;;;;22.73;52.55;101300.47;5187550;28;20030;-71
2023/06/10 01:25:59;;;;;;;7.37;6.67;;;;;;;22.85;52.45;101295.41;5190902;28;20464;-68
2023/06/10 01:28:41;;;;;;;11.63;6.68;;;;;;;22.73;52.59;101297.81;5180550;28;20584;-68
2023/06/10 01:31:33;;;;;;;7.63;6.90;;;;;;;22.51;53.05;101292.59;5189930;28;20500;-70
2023/06/10 01:34:10;;;;;;;7.18;6.47;;;;;;;22.56;52.92;101297.31;5189735;28;20022;-70
2023/06/10 01:36:45;;;;;;;9.25;6.38;;;;;;;22.47;53.96;101304.69;5187269;28;20088;-67
2023/06/10 01:39:20;;;;;;;7.75;6.50;;;;;;;22.28;53.63;101295.53;5191618;28;20022;-68
2023/06/10 01:41:52;;;;;;;7.63;6.10;;;;;;;22.27;54.27;101309.88;5191885;28;20054;-68
2023/06/10 01:44:24;;;;;;;7.65;6.22;;;;;;;22.19;53.83;101296.69;5191217;28;20454;-68
2023/06/10 01:46:55;;;;;;;8.23;6.10;;;;;;;22.20;54.65;101297.53;5186434;28;20036;-68
2023/06/10 01:49:28;;;;;;;7.83;7.03;;;;;;;22.10;54.45;101301.34;5190644;28;20022;-70
2023/06/10 01:51:59;;;;;;;9.60;7.22;;;;;;;22.03;54.70;101305.81;5190680;28;20496;-68
2023/06/10 01:54:31;;;;;;;7.87;7.07;;;;;;;21.94;55.04;101300.81;5187409;28;20041;-68
2023/06/10 01:57:02;;;;;;;8.10;7.30;;;;;;;21.93;55.18;101301.81;5188336;28;20034;-68
2023/06/10 01:59:33;;;;;;;8.07;7.10;;;;;;;21.94;54.75;101304.31;5189596;28;20038;-68
2023/06/10 02:02:05;;;;;;;7.53;6.73;;;;;;;21.87;55.68;101303.44;5190704;28;20081;-68
2023/06/10 02:04:36;;;;;;;7.90;7.10;;;;;;;21.86;55.73;101307.94;5186842;28;20056;-70
2023/06/10 02:07:08;;;;;;;9.13;6.90;;;;;;;21.88;54.89;101301.59;5189402;28;20111;-68
2023/06/10 02:09:39;;;;;;;10.80;7.63;;;;;;;21.82;55.29;101306.69;5191309;28;20059;-71
2023/06/10 02:12:11;;;;;;;9.00;7.20;;;;;;;21.83;55.05;101302.16;5189438;28;20045;-68
2023/06/10 02:14:42;;;;;;;8.93;7.00;;;;;;;21.73;55.74;101312.34;5186096;28;20026;-69
2023/06/10 02:17:14;;;;;;;8.33;7.30;;;;;;;21.61;56.34;101302.19;5189640;28;20027;-68
2023/06/10 02:19:52;;;;;;;11.83;7.60;;;;;;;21.66;56.62;101312.28;5189659;28;20030;-70
2023/06/10 02:22:23;;;;;;;7.90;6.70;;;;;;;21.58;56.93;101312.41;5185864;28;20026;-68
2023/06/10 02:24:54;;;;;;;8.20;6.57;;;;;;;21.54;56.84;101308.47;5187641;28;20101;-70
2023/06/10 02:27:26;;;;;;;8.03;7.23;;;;;;;21.54;56.86;101311.13;5188709;28;20054;-68
2023/06/10 02:29:57;;;;;;;8.63;7.13;;;;;;;21.45;57.58;101310.44;5187897;28;20072;-68
2023/06/10 02:32:29;;;;;;;8.27;7.47;;;;;;;21.44;57.50;101310.63;5188578;28;20041;-68
2023/06/10 02:35:01;;;;;;;8.40;7.23;;;;;;;21.31;58.29;101316.63;5187932;28;20030;-70
2023/06/10 02:37:32;;;;;;;8.57;7.70;;;;;;;21.33;57.99;101317.31;5186502;28;20451;-68
2023/06/10 02:40:04;;;;;;;10.67;7.77;;;;;;;21.33;58.81;101315.47;5187066;28;20117;-68
2023/06/10 02:42:36;;;;;;;8.57;7.73;;;;;;;21.29;59.03;101311.50;5186507;28;20492;-69
2023/06/10 02:45:08;;;;;;;8.53;7.63;;;;;;;21.19;59.69;101320.81;5188014;28;20298;-69
2023/06/10 02:47:42;;;;;;;8.83;7.93;;;;;;;21.12;60.32;101316.22;5186906;28;20613;-69
2023/06/10 02:50:13;;;;;;;8.90;7.97;;;;;;;21.13;60.95;101317.03;5187242;28;20022;-68
2023/06/10 02:52:45;;;;;;;9.87;7.87;;;;;;;21.11;60.68;101319.09;5187804;28;20044;-69
2023/06/10 02:55:16;;;;;;;9.63;8.63;;;;;;;21.05;60.72;101315.31;5189504;28;20461;-69
2023/06/10 02:57:47;;;;;;;8.93;8.03;;;;;;;20.97;61.45;101314.59;5186679;28;20488;-68
2023/06/10 03:00:20;;;;;;;10.60;9.00;;;;;;;20.99;61.60;101316.09;5187991;28;20412;-69
2023/06/10 03:02:51;;;;;;;10.32;8.98;;;;;;;20.98;61.74;101324.25;5187105;28;20045;-70
2023/06/10 03:05:23;;;;;;;14.20;8.87;;;;;;;20.95;61.82;101320.13;5187814;28;20473;-68
2023/06/10 03:07:54;;;;;;;9.87;8.80;;;;;;;20.90;62.39;101312.69;5188480;28;20026;-68
2023/06/10 03:10:26;;;;;;;10.87;9.43;;;;;;;20.84;63.06;101318.78;5175407;28;20030;-68
2023/06/10 03:12:58;;;;;;;12.43;9.05;;;;;;;20.78;63.05;101324.00;5196745;28;20022;-68
2023/06/10 03:15:32;;;;;;;11.13;9.87;;;;;;;20.74;64.01;101320.88;5190697;28;20431;-69
2023/06/10 03:18:03;;;;;;;10.52;8.25;;;;;;;20.73;64.15;101321.09;5194030;28;20030;-69
2023/06/10 03:20:39;;;;;;;10.50;8.90;;;;;;;20.73;64.14;101321.09;5192601;28;20034;-69
2023/06/10 03:23:10;;;;;;;9.18;8.13;;;;;;;20.61;64.85;101323.38;5195525;28;20125;-67
2023/06/10 03:25:42;;;;;;;13.17;8.70;;;;;;;20.64;63.91;101321.16;5193533;28;20046;-68
2023/06/10 03:28:13;;;;;;;10.43;8.30;;;;;;;20.58;65.69;101323.75;5195999;28;20030;-67
2023/06/10 03:30:44;;;;;;;13.37;9.13;;;;;;;20.59;65.89;101328.06;5194908;28;20042;-69
2023/06/10 03:33:16;;;;;;;9.47;8.50;;;;;;;20.65;65.45;101336.13;5193392;28;20030;-68
2023/06/10 03:35:47;;;;;;;9.97;7.97;;;;;;;20.59;66.70;101336.03;5195044;28;20026;-68
2023/06/10 03:38:19;;;;;;;10.30;9.20;;;;;;;20.56;67.19;101336.41;5195903;28;20358;-69
2023/06/10 03:40:50;;;;;;;10.40;9.40;;;;;;;20.46;67.07;101334.00;5191348;28;20026;-70
2023/06/10 03:43:21;;;;;;;12.90;9.30;;;;;;;20.56;67.31;101339.06;5192386;28;20030;-69
2023/06/10 03:45:53;;;;;;;9.70;8.80;;;;;;;20.50;67.38;101332.66;5191881;28;20502;-68
2023/06/10 03:48:24;;;;;;;11.70;9.07;;;;;;;20.45;67.93;101339.50;5194211;28;20043;-70
2023/06/10 03:50:55;;;;;;;10.30;9.17;;;;;;;20.38;68.88;101345.56;5192452;28;20665;-68
2023/06/10 03:53:27;;;;;;;10.47;9.33;;;;;;;20.41;68.78;101342.50;5193517;28;20018;-70
2023/06/10 03:55:58;;;;;;;12.83;9.37;;;;;;;20.36;69.31;101344.06;5196353;28;20221;-68
2023/06/10 03:58:29;;;;;;;9.57;8.67;;;;;;;20.38;68.98;101332.25;5193214;28;20022;-70
2023/06/10 04:01:00;;;;;;;11.00;9.53;;;;;;;20.41;69.59;101336.38;5194470;28;20026;-68
2023/06/10 04:03:33;;;;;;;10.17;9.17;;;;;;;20.38;69.90;101336.72;5194889;28;20034;-69
2023/06/10 04:06:04;;;;;;;11.13;9.90;;;;;;;20.40;69.51;101340.03;5193481;28;20047;-70
2023/06/10 04:08:35;;;;;;;10.93;9.83;;;;;;;20.38;70.53;101342.91;5189099;28;20026;-69
2023/06/10 04:11:07;;;;;;;14.90;10.33;;;;;;;20.36;70.62;101346.75;5195145;28;20033;-69
2023/06/10 04:13:38;;;;;;;12.17;10.43;;;;;;;20.37;70.86;101340.41;5195209;28;20372;-69
2023/06/10 04:16:10;;;;;;;11.00;10.00;;;;;;;20.38;70.57;101340.25;5195788;28;20076;-69
2023/06/10 04:18:41;;;;;;;11.50;10.23;;;;;;;20.35;70.87;101342.44;5192304;28;20031;-69
2023/06/10 04:21:13;;;;;;;14.07;10.35;;;;;;;20.41;70.35;101344.34;5187593;28;20857;-69
2023/06/10 04:23:44;;;;;;;14.93;10.37;;;;;;;20.40;70.99;101345.38;5190689;28;20064;-69
2023/06/10 04:26:15;;;;;;;11.33;10.23;;;;;;;20.42;70.75;101352.16;5191310;28;20054;-69
2023/06/10 04:28:47;;;;;;;12.13;10.47;;;;;;;20.43;71.21;101353.00;5190918;28;20026;-69
2023/06/10 04:31:18;;;;;;;12.53;10.23;;;;;;;20.42;71.04;101359.34;5192969;28;20076;-70
2023/06/10 04:33:49;;;;;;;10.97;9.97;;;;;;;20.40;70.88;101356.84;5193328;28;20036;-69
2023/06/10 04:36:20;;;;;;;11.53;10.40;;;;;;;20.44;71.82;101359.97;5189377;28;20022;-69
2023/06/10 04:38:52;;;;;;;11.27;10.10;;;;;;;20.49;71.27;101362.91;5190566;28;20030;-70
2023/06/10 04:41:23;;;;;;;11.27;10.07;;;;;;;20.47;71.46;101353.44;5188216;28;20019;-69
2023/06/10 04:43:54;;;;;;;11.53;10.33;;;;;;;20.52;70.87;101361.75;5188928;28;20117;-69
2023/06/10 04:46:26;;;;;;;12.57;10.80;;;;;;;20.50;71.21;101364.59;5188446;28;20375;-69
2023/06/10 04:48:57;;;;;;;12.33;10.77;;;;;;;20.46;71.15;101357.97;5185660;28;20465;-69
2023/06/10 04:51:29;;;;;;;10.97;9.83;;;;;;;20.47;71.11;101359.59;5191236;28;20638;-69
2023/06/10 04:54:03;;;;;;;11.13;9.93;;;;;;;20.51;71.01;101368.91;5192362;28;20574;-70
2023/06/10 04:56:34;;;;;;;11.75;10.52;;;;;;;20.57;70.78;101367.31;5188856;28;20065;-70
2023/06/10 04:59:06;;;;;;;11.83;10.63;;;;;;;20.57;70.43;101368.19;5190219;28;20117;-70
2023/06/10 05:01:37;;;;;;;10.03;9.07;;;;;;;20.62;70.50;101367.63;5189901;28;20742;-69
2023/06/10 05:04:08;;;;;;;11.40;10.33;;;;;;;20.62;70.55;101367.63;5190596;28;20037;-69
2023/06/10 05:06:39;;;;;;;11.07;9.97;;;;;;;20.70;70.69;101372.03;5190189;28;20065;-69
2023/06/10 05:09:11;;;;;;;11.43;10.10;;;;;;;20.70;70.03;101375.53;5188522;28;20478;-69
2023/06/10 05:11:42;;;;;;;13.30;10.70;;;;;;;20.75;69.99;101361.66;5187771;28;20628;-68
2023/06/10 05:14:16;;;;;;;12.33;10.13;;;;;;;20.77;70.40;101367.63;5187407;28;20094;-69
2023/06/10 05:16:47;;;;;;;13.88;9.70;;;;;;;20.82;69.38;101373.22;5189789;28;20480;-69
2023/06/10 05:19:19;;;;;;;11.20;10.20;;;;;;;20.85;69.09;101363.03;5187835;28;20049;-68
2023/06/10 05:21:50;;;;;;;12.53;9.63;;;;;;;20.96;68.31;101369.72;5188102;28;20061;-69
2023/06/10 05:24:21;;;;;;;13.10;10.20;;;;;;;21.00;68.26;101365.66;5188054;28;20132;-68
2023/06/10 05:26:53;;;;;;;11.33;9.47;;;;;;;21.05;68.33;101371.25;5184918;28;20050;-70
2023/06/10 05:29:24;;;;;;;13.23;10.27;;;;;;;21.14;67.71;101367.50;5189568;28;20403;-68
2023/06/10 05:31:57;;;;;;;11.20;9.43;;;;;;;21.19;67.91;101363.44;5191280;28;20049;-69
2023/06/10 05:34:29;;;;;;;11.73;9.68;;;;;;;21.14;67.44;101367.50;5186748;28;20026;-68
2023/06/10 05:37:01;;;;;;;12.90;9.57;;;;;;;21.17;68.40;101366.28;5190671;28;20471;-68
2023/06/10 05:39:32;;;;;;;11.03;9.73;;;;;;;21.26;68.55;101367.84;5187737;28;20045;-67
2023/06/10 05:42:06;;;;;;;10.20;9.10;;;;;;;21.29;66.99;101371.94;5190275;28;20128;-70
2023/06/10 05:44:37;;;;;;;13.68;9.90;;;;;;;21.28;66.31;101367.63;5186173;28;20350;-69
2023/06/10 05:47:09;;;;;;;11.83;9.10;;;;;;;21.40;66.45;101365.31;5188654;28;20484;-68
2023/06/10 05:49:40;;;;;;;13.73;9.60;;;;;;;21.45;65.65;101363.75;5181850;28;20045;-71
2023/06/10 05:52:11;;;;;;;12.60;9.07;;;;;;;21.55;65.88;101372.25;5191943;28;20033;-70
2023/06/10 05:54:43;;;;;;;13.27;9.07;;;;;;;21.57;65.44;101372.91;5184759;28;20014;-69
2023/06/10 05:57:14;;;;;;;10.07;9.07;;;;;;;21.70;64.47;101374.06;5188402;28;20084;-69
2023/06/10 05:59:45;;;;;;;10.23;9.17;;;;;;;21.76;62.84;101375.97;5181821;28;20034;-69
2023/06/10 06:02:16;;;;;;;11.13;10.03;;;;;;;21.81;63.17;101371.69;5175507;28;20109;-70
2023/06/10 06:04:48;;;;;;;11.77;8.83;;;;;;;21.92;63.57;101381.03;5184404;28;20431;-68
2023/06/10 06:07:20;;;;;;;11.37;9.80;;;;;;;22.01;62.64;101379.91;5188506;28;20026;-70
2023/06/10 06:09:51;;;;;;;11.63;9.10;;;;;;;22.05;61.49;101380.34;5189500;28;20034;-70
2023/06/10 06:12:23;;;;;;;10.30;8.87;;;;;;;22.21;61.68;101381.94;5188330;28;20044;-67
2023/06/10 06:14:54;;;;;;;10.83;9.23;;;;;;;22.34;60.07;101380.16;5184947;28;20026;-66
2023/06/10 06:17:25;;;;;;;14.07;9.97;;;;;;;22.46;59.94;101377.78;5188877;28;20035;-67
2023/06/10 06:19:56;;;;;;;12.27;9.50;;;;;;;22.51;59.31;101387.91;5189108;28;20378;-67
2023/06/10 06:22:28;;;;;;;13.83;9.00;;;;;;;22.63;58.63;101375.63;5186103;28;20234;-67
2023/06/10 06:24:59;;;;;;;11.90;9.13;;;;;;;22.68;58.81;101375.03;5189304;28;20113;-67
2023/06/10 06:27:31;;;;;;;11.83;9.00;;;;;;;22.77;57.87;101369.34;5185949;28;20527;-66
2023/06/10 06:30:02;;;;;;;10.87;8.57;;;;;;;22.91;56.54;101374.75;5186463;28;20030;-68
2023/06/10 06:32:34;;;;;;;11.67;9.27;;;;;;;22.92;56.66;101379.94;5182547;28;20117;-66
2023/06/10 06:35:07;;;;;;;10.30;9.13;;;;;;;23.17;57.19;101385.56;5185251;28;20121;-70
2023/06/10 06:37:38;;;;;;;10.48;8.75;;;;;;;23.16;56.91;101383.13;5188272;28;20117;-67
2023/06/10 06:40:10;;;;;;;9.37;8.27;;;;;;;23.31;54.15;101379.25;5186757;28;20032;-70
2023/06/10 06:42:41;;;;;;;11.47;8.40;;;;;;;23.51;55.10;101394.53;5188323;28;20154;-70
2023/06/10 06:45:13;;;;;;;10.93;8.80;;;;;;;23.57;53.66;101395.59;5185898;28;20101;-69
2023/06/10 06:47:44;;;;;;;11.17;8.40;;;;;;;23.64;53.22;101389.22;5185275;28;20019;-69
2023/06/10 06:50:16;;;;;;;13.30;8.53;;;;;;;23.81;54.08;101391.53;5188593;28;20022;-67
2023/06/10 06:52:47;;;;;;;12.23;9.07;;;;;;;23.79;52.18;101392.56;5188493;28;20085;-67
2023/06/10 06:55:19;;;;;;;11.03;7.77;;;;;;;24.01;52.33;101384.34;5186905;28;20022;-69
2023/06/10 06:57:50;;;;;;;10.27;7.80;;;;;;;24.07;50.82;101393.41;5185955;28;20034;-68
2023/06/10 07:00:21;;;;;;;11.23;7.67;;;;;;;24.23;50.95;101399.16;5188317;28;20053;-69
2023/06/10 07:02:53;;;;;;;11.57;7.87;;;;;;;24.33;50.22;101389.91;5186960;28;20034;-67
2023/06/10 07:05:27;;;;;;;10.03;8.07;;;;;;;24.46;50.08;101395.25;5181751;28;20117;-67
2023/06/10 07:07:58;;;;;;;11.57;7.65;;;;;;;24.51;50.43;101388.25;5183805;28;20030;-67
2023/06/10 07:10:30;;;;;;;8.80;7.63;;;;;;;24.71;48.71;101396.22;5181467;28;20030;-67
2023/06/10 07:13:01;;;;;;;11.33;8.07;;;;;;;24.80;48.72;101399.50;5185973;28;20733;-68
2023/06/10 07:15:33;;;;;;;9.50;8.10;;;;;;;25.03;48.83;101404.38;5188623;28;20407;-67
2023/06/10 07:18:04;;;;;;;7.77;6.90;;;;;;;25.02;47.49;101394.69;5186051;28;20392;-67
2023/06/10 07:20:35;;;;;;;8.70;6.97;;;;;;;25.18;47.14;101394.22;5182633;28;20527;-68
2023/06/10 07:23:07;;;;;;;9.40;7.30;;;;;;;25.38;46.94;101399.53;5185926;28;20044;-67
2023/06/10 07:25:38;;;;;;;9.53;7.57;;;;;;;25.39;45.44;101409.19;5186642;28;20158;-67
2023/06/10 07:28:09;;;;;;;11.93;7.47;;;;;;;25.53;46.01;101403.75;5187888;28;20030;-68
2023/06/10 07:30:41;;;;;;;10.23;7.33;;;;;;;25.69;46.31;101411.31;5186319;28;20551;-67
2023/06/10 07:33:12;;;;;;;8.53;7.40;;;;;;;25.79;44.84;101408.97;5189474;28;20026;-67
2023/06/10 07:35:43;;;;;;;10.80;7.23;;;;;;;25.85;45.46;101405.44;5183040;28;20042;-67
2023/06/10 07:38:14;;;;;;;9.43;7.03;;;;;;;25.85;44.20;101408.13;5185970;28;20030;-69
2023/06/10 07:40:46;;;;;;;9.67;7.30;;;;;;;26.02;44.44;101411.06;5185143;28;20054;-68
2023/06/10 07:43:18;;;;;;;8.53;6.53;;;;;;;26.35;44.77;101412.66;5190612;28;20396;-68
2023/06/10 07:45:50;;;;;;;9.25;6.88;;;;;;;26.42;43.69;101402.69;5187323;28;20072;-68
2023/06/10 07:48:21;;;;;;;10.10;6.63;;;;;;;26.48;42.85;101409.91;5180747;28;20121;-70
2023/06/10 07:50:52;;;;;;;10.33;6.80;;;;;;;26.61;43.21;101414.31;5183790;28;20038;-68
2023/06/10 07:53:24;;;;;;;10.03;5.93;;;;;;;26.69;42.39;101416.69;5185391;28;20036;-67
2023/06/10 07:55:55;;;;;;;12.03;7.53;;;;;;;26.69;41.92;101411.31;5187813;28;20476;-68
2023/06/10 07:58:26;;;;;;;11.00;6.77;;;;;;;26.79;42.31;101418.88;5188708;28;21030;-67
2023/06/10 08:00:57;;;;;;;10.07;6.50;;;;;;;27.01;42.11;101412.00;5191199;28;20373;-68
2023/06/10 08:03:29;;;;;;;8.43;5.97;;;;;;;27.12;39.84;101416.66;5185555;28;20034;-68
2023/06/10 08:06:00;;;;;;;6.70;5.30;;;;;;;27.26;39.72;101405.72;5189318;28;20049;-68
2023/06/10 08:08:32;;;;;;;11.73;5.70;;;;;;;27.44;40.04;101411.06;5190830;28;20030;-68
2023/06/10 08:11:03;;;;;;;8.40;6.60;;;;;;;27.50;39.71;101417.38;5188165;28;20460;-69
2023/06/10 08:13:34;;;;;;;7.90;5.40;;;;;;;27.54;39.54;101408.66;5192800;28;20459;-70
2023/06/10 08:16:05;;;;;;;7.63;5.97;;;;;;;27.70;38.85;101422.50;5192082;28;20522;-68
2023/06/10 08:18:37;;;;;;;8.30;5.80;;;;;;;27.71;38.62;101414.19;5189844;28;20472;-69
2023/06/10 08:21:08;;;;;;;7.30;5.50;;;;;;;27.77;38.37;101410.63;5184908;28;20532;-68
2023/06/10 08:23:39;;;;;;;10.00;5.70;;;;;;;27.96;37.82;101419.44;5191461;28;20053;-69
2023/06/10 08:26:11;;;;;;;6.30;5.13;;;;;;;28.18;37.98;101419.66;5189835;28;20133;-69
2023/06/10 08:28:42;;;;;;;6.73;5.00;;;;;;;28.34;37.17;101410.09;5190790;28;20034;-68
2023/06/10 08:31:13;;;;;;;10.73;6.00;;;;;;;28.28;37.17;101411.84;5184844;28;20034;-68
2023/06/10 08:33:45;;;;;;;6.37;5.17;;;;;;;28.24;36.61;101412.53;5189854;28;20026;-69
2023/06/10 08:36:16;;;;;;;8.97;5.63;;;;;;;28.55;36.35;101419.47;5188089;28;20027;-69
2023/06/10 08:38:47;;;;;;;7.47;5.40;;;;;;;28.62;36.50;101412.09;5192492;28;20027;-69
2023/06/10 08:41:20;;;;;;;6.67;5.10;;;;;;;28.67;35.91;101408.69;5190252;28;20041;-68
2023/06/10 08:44:22;;;;;;;6.93;5.22;;;;;;;29.04;36.22;101420.00;5192856;28;20037;-68
2023/06/10 08:46:55;;;;;;;9.38;5.03;;;;;;;28.79;35.82;101412.16;5189094;28;20030;-67
2023/06/10 08:49:30;;;;;;;9.15;5.47;;;;;;;28.97;35.76;101403.09;5191201;28;20022;-69
2023/06/10 08:52:02;;;;;;;8.80;5.40;;;;;;;29.15;36.77;101419.16;5189207;28;20034;-68
2023/06/10 08:54:37;;;;;;;5.47;4.97;;;;;;;29.37;35.65;101415.78;5189405;28;20032;-70
2023/06/10 08:57:09;;;;;;;9.25;5.30;;;;;;;29.40;35.34;101412.59;5190143;28;20117;-68
2023/06/10 08:59:40;;;;;;;8.70;5.77;;;;;;;29.46;35.26;101403.53;5189633;28;20407;-70
2023/06/10 09:02:14;;;;;;;9.38;5.78;;;;;;;29.53;33.39;101405.03;5190787;28;20061;-67
2023/06/10 09:04:46;;;;;;;7.80;5.10;;;;;;;29.61;34.64;101411.94;5189326;28;20172;-68
2023/06/10 09:07:18;;;;;;;7.32;5.32;;;;;;;29.78;34.75;101401.16;5188426;28;20026;-69
2023/06/10 09:09:49;;;;;;;5.97;4.93;;;;;;;29.77;33.09;101407.63;5186174;28;20033;-71
2023/06/10 09:12:21;;;;;;;8.30;5.23;;;;;;;29.95;33.66;101409.25;5189055;28;20037;-68
2023/06/10 09:14:52;;;;;;;9.53;4.97;;;;;;;29.83;33.14;101412.06;5188915;28;20607;-68
2023/06/10 09:17:23;;;;;;;9.43;5.13;;;;;;;29.88;32.59;101408.59;5187514;28;20526;-71
2023/06/10 09:19:56;;;;;;;7.93;5.20;;;;;;;30.01;32.43;101408.28;5191153;28;20035;-68
2023/06/10 09:22:28;;;;;;;7.00;5.25;;;;;;;30.10;32.50;101401.41;5189752;28;20034;-68
2023/06/10 09:25:10;;;;;;;8.32;5.03;;;;;;;30.39;33.40;101402.13;5186610;28;20043;-68
2023/06/10 09:27:59;;;;;;;6.47;5.20;;;;;;;30.72;32.97;101411.22;5189012;28;20093;-68
2023/06/10 09:30:34;;;;;;;5.80;5.10;;;;;;;30.52;32.27;101417.19;5189781;28;20033;-68
2023/06/10 09:33:17;;;;;;;6.07;5.05;;;;;;;30.60;31.86;101414.03;5190253;28;20022;-68
2023/06/10 09:35:49;;;;;;;6.65;4.80;;;;;;;30.72;32.14;101411.22;5189004;28;20038;-68
2023/06/10 09:38:21;;;;;;;;;;;;;;;31.62;31.82;101407.13;5187574;28;20026;-70
2023/06/10 09:40:54;;;;;;;8.27;5.40;;;;;;;31.07;32.09;101413.59;5191918;28;20142;-70
2023/06/10 09:43:38;;;;;;;6.38;5.15;;;;;;;31.11;32.37;101403.91;5188555;28;20019;-68
2023/06/10 09:46:17;;;;;;;8.18;5.10;;;;;;;31.04;32.23;101405.16;5189316;28;20125;-68
2023/06/10 09:48:48;;;;;;;5.93;4.85;;;;;;;31.20;32.12;101406.97;5185374;28;20435;-68
2023/06/10 09:51:20;;;;;;;8.47;5.17;;;;;;;31.23;31.38;101401.84;5185852;28;20027;-68
2023/06/10 09:53:51;;;;;;;9.47;4.90;;;;;;;31.39;31.66;101399.34;5189247;28;20032;-69
2023/06/10 09:56:33;;;;;;;9.93;4.95;;;;;;;31.54;31.52;101404.09;5189027;28;20312;-68
2023/06/10 09:59:06;;;;;;;8.50;5.30;;;;;;;31.60;30.85;101401.16;5188232;28;20061;-70
2023/06/10 10:01:37;;;;;;;6.28;4.68;;;;;;;31.67;30.89;101393.66;5188114;28;20022;-70
2023/06/10 10:04:08;;;;;;;6.63;4.77;;;;;;;31.68;29.91;101399.88;5187471;28;20558;-70
2023/06/10 10:06:40;;;;;;;7.87;5.03;;;;;;;31.50;30.05;101391.03;5185575;28;20038;-69
2023/06/10 10:09:11;;;;;;;9.93;5.07;;;;;;;31.79;30.29;101392.66;5182261;28;20042;-70
2023/06/10 10:11:44;;;;;;;7.10;5.00;;;;;;;31.68;30.02;101402.59;5184615;28;20038;-69
2023/06/10 10:14:16;;;;;;;5.57;4.65;;;;;;;31.62;29.26;101396.28;5180246;28;20402;-71
2023/06/10 10:16:49;;;;;;;8.85;4.78;;;;;;;31.64;28.99;101393.34;5186515;28;20085;-70
2023/06/10 10:19:25;;;;;;;7.80;4.72;;;;;;;31.73;28.53;101384.47;5186020;28;20031;-71
2023/06/10 10:22:05;;;;;;;6.05;4.82;;;;;;;31.91;28.92;101380.59;5187675;28;20439;-70
2023/06/10 10:24:42;;;;;;;6.35;5.15;;;;;;;31.97;28.77;101395.81;5163288;28;20037;-70
2023/06/10 10:27:21;;;;;;;6.15;4.70;;;;;;;32.11;29.28;101385.31;5173732;28;20046;-71
2023/06/10 10:29:54;;;;;;;7.07;4.85;;;;;;;32.10;28.92;101380.19;5180639;28;20170;-70
2023/06/10 10:32:38;;;;;;;8.85;4.72;;;;;;;32.28;29.05;101374.34;5186926;28;20076;-71
2023/06/10 10:35:18;;;;;;;6.93;4.68;;;;;;;32.31;29.53;101394.66;5185884;28;20030;-71
2023/06/10 10:37:54;;;;;;;6.93;4.40;;;;;;;32.51;28.67;101377.75;5182618;28;20130;-71
2023/06/10 10:40:29;;;;;;;9.18;4.80;;;;;;;32.31;28.21;101378.41;5175606;28;20347;-70
2023/06/10 10:43:01;;;;;;;8.35;4.55;;;;;;;32.46;29.21;101370.38;5187767;28;20027;-70
2023/06/10 10:45:35;;;;;;;8.10;5.38;;;;;;;32.57;28.80;101380.19;5188915;28;20040;-71
2023/06/10 10:48:11;;;;;;;7.90;4.88;;;;;;;32.58;27.59;101386.44;5188865;28;20436;-71
2023/06/10 10:50:42;;;;;;;6.55;4.78;;;;;;;32.62;27.57;101371.28;5186573;28;20053;-70
2023/06/10 10:53:20;;;;;;;5.70;4.53;;;;;;;32.89;28.12;101376.53;5187057;28;20476;-71
2023/06/10 10:56:04;;;;;;;6.72;4.80;;;;;;;33.00;28.46;101370.09;5185839;28;20038;-70
2023/06/10 10:58:35;;;;;;;8.60;5.43;;;;;;;32.81;27.48;101368.91;5185776;28;20069;-71
2023/06/10 11:01:14;;;;;;;6.63;4.77;;;;;;;32.97;27.92;101370.59;5184934;28;20109;-71
2023/06/10 11:03:49;;;;;;;6.70;4.65;;;;;;;32.92;28.05;101368.66;5179985;28;20293;-71
2023/06/10 11:06:20;;;;;;;7.40;5.40;;;;;;;32.98;27.36;101364.09;5172355;28;20025;-70
2023/06/10 11:08:52;;;;;;;8.90;4.83;;;;;;;32.91;27.61;101366.22;5185898;28;20497;-70
2023/06/10 11:11:25;;;;;;;;;;;;;;;33.90;27.38;101364.16;5189869;28;20030;-70
2023/06/10 11:14:04;;;;;;;5.65;4.50;;;;;;;33.28;27.00;101365.25;5183698;28;20262;-71
2023/06/10 11:16:43;;;;;;;6.53;5.22;;;;;;;33.38;27.52;101357.94;5184736;28;20038;-71
2023/06/10 11:19:37;;;;;;;7.15;4.75;;;;;;;33.50;27.10;101356.88;5188002;28;20408;-71
2023/06/10 11:22:09;;;;;;;6.55;4.47;;;;;;;33.11;27.54;101355.44;5187724;28;20030;-70
2023/06/10 11:24:41;;;;;;;5.72;4.75;;;;;;;33.09;27.56;101357.59;5183545;28;20031;-70
2023/06/10 11:27:17;;;;;;;;;;;;;;;34.02;25.16;101353.88;5184605;28;20047;-70
2023/06/10 11:30:00;;;;;;;4.75;4.28;;;;;;;33.56;26.44;101350.34;5185400;28;20358;-68
2023/06/10 11:32:34;;;;;;;5.97;4.22;;;;;;;33.32;25.87;101353.56;5180956;28;20039;-68
2023/06/10 11:35:07;;;;;;;5.20;4.22;;;;;;;33.29;25.63;101350.56;5188337;28;20117;-70
2023/06/10 11:37:38;;;;;;;6.35;4.95;;;;;;;33.45;25.42;101344.06;5191833;28;20027;-69
2023/06/10 11:40:10;;;;;;;;;;;;;;;34.37;25.87;101342.06;5193075;28;20141;-70
2023/06/10 11:42:43;;;;;;;6.15;4.40;;;;;;;33.66;26.06;101340.28;5191979;28;20343;-71
2023/06/10 11:45:16;;;;;;;6.97;4.32;;;;;;;33.66;25.70;101344.91;5191954;28;20030;-70
2023/06/10 11:48:00;;;;;;;9.95;4.65;;;;;;;33.94;25.16;101346.22;5192107;28;20035;-70